createdAt,value
2017-12-27T00:01:29.595Z,4
2017-12-27T00:11:40.572Z,4
2017-12-27T00:21:32.911Z,5
2017-12-27T00:31:29.124Z,4
2017-12-27T00:41:29.052Z,5
2017-12-27T00:51:30.453Z,4
2017-12-27T01:01:27.433Z,5
2017-12-27T01:11:28.801Z,5
2017-12-27T01:21:33.202Z,4
2017-12-27T01:31:48.368Z,4
2017-12-27T01:41:44.022Z,4
2017-12-27T01:51:36.275Z,4
2017-12-27T02:01:27.586Z,4
2017-12-27T02:11:33.111Z,4
2017-12-27T02:21:29.356Z,4
2017-12-27T02:31:33.915Z,4
2017-12-27T02:52:01.720Z,4
2017-12-27T03:01:45.164Z,4
2017-12-27T03:11:48.445Z,4
2017-12-27T03:21:54.372Z,4
2017-12-27T03:31:26.899Z,4
2017-12-27T03:41:42.339Z,4
2017-12-27T03:51:29.185Z,4
2017-12-27T04:01:47.693Z,4
2017-12-27T04:11:30.201Z,4
2017-12-27T04:21:32.812Z,4
2017-12-27T04:32:04.854Z,4
2017-12-27T04:41:29.512Z,4
2017-12-27T04:51:27.825Z,4
2017-12-27T05:01:41.556Z,3
2017-12-27T05:31:27.665Z,4
2017-12-27T05:41:49.786Z,3
2017-12-27T05:51:48.251Z,4
2017-12-27T06:01:30.389Z,4
2017-12-27T06:11:32.807Z,4
2017-12-27T06:21:30.926Z,4
2017-12-27T06:31:28.254Z,4
2017-12-27T06:41:33.416Z,4
2017-12-27T06:51:32.598Z,4
2017-12-27T07:01:32.525Z,4
2017-12-27T07:11:32.205Z,4
2017-12-27T07:21:32.317Z,4
2017-12-27T07:31:33.461Z,4
2017-12-27T07:41:31.080Z,3
2017-12-27T07:51:29.517Z,3
2017-12-27T08:01:30.764Z,3
2017-12-27T08:11:27.195Z,3
2017-12-27T08:21:27.165Z,3
2017-12-27T08:31:33.461Z,4
2017-12-27T08:41:33.422Z,4
2017-12-27T08:51:32.054Z,4
2017-12-27T09:01:47.465Z,4
2017-12-27T09:11:36.068Z,4
2017-12-27T09:21:33.793Z,4
2017-12-27T09:31:35.285Z,5
2017-12-27T09:41:30.251Z,5
2017-12-27T09:51:27.718Z,5
2017-12-27T10:01:27.486Z,6
2017-12-27T10:11:32.562Z,6
2017-12-27T10:21:56.223Z,6
2017-12-27T10:31:29.512Z,6
2017-12-27T10:41:40.507Z,7
2017-12-27T10:51:52.277Z,7
2017-12-27T11:01:27.806Z,7
2017-12-27T11:11:31.137Z,7
2017-12-27T11:21:42.596Z,8
2017-12-27T11:31:32.830Z,8
2017-12-27T11:41:33.656Z,8
2017-12-27T11:51:28.615Z,9
2017-12-27T12:01:33.197Z,8
2017-12-27T12:11:29.383Z,8
2017-12-27T12:21:29.490Z,9
2017-12-27T12:31:28.215Z,9
2017-12-27T12:41:30.218Z,9
2017-12-27T12:51:29.591Z,9
2017-12-27T13:01:30.031Z,9
2017-12-27T13:11:27.718Z,9
2017-12-27T13:21:28.258Z,9
2017-12-27T13:31:33.005Z,9
2017-12-27T13:41:28.561Z,9
2017-12-27T13:51:27.820Z,9
2017-12-27T14:01:30.340Z,10
2017-12-27T14:11:29.546Z,10
2017-12-27T14:21:34.073Z,10
2017-12-27T14:31:28.742Z,10
2017-12-27T14:41:32.774Z,9
2017-12-27T14:51:27.541Z,10
2017-12-27T15:01:27.487Z,10
2017-12-27T15:11:57.540Z,9
2017-12-27T15:21:32.226Z,10
2017-12-27T15:31:46.921Z,10
2017-12-27T15:41:32.966Z,10
2017-12-27T15:51:27.419Z,9
2017-12-27T16:01:42.627Z,9
2017-12-27T16:11:40.944Z,9
2017-12-27T16:31:27.397Z,9
2017-12-27T16:51:33.801Z,8
2017-12-27T17:01:40.432Z,8
2017-12-27T17:11:29.275Z,8
2017-12-27T17:22:19.610Z,8
2017-12-27T17:31:42.183Z,8
2017-12-27T17:41:42.701Z,8
2017-12-27T17:51:30.822Z,8
2017-12-27T18:01:49.131Z,8
2017-12-27T18:11:41.580Z,8
2017-12-27T18:31:48.598Z,8
2017-12-27T18:41:33.498Z,8
2017-12-27T18:51:44.459Z,8
2017-12-27T19:01:42.566Z,8
2017-12-27T19:11:43.898Z,8
2017-12-27T19:21:27.698Z,8
2017-12-27T19:31:30.374Z,8
2017-12-27T19:41:30.631Z,8
2017-12-27T19:51:31.370Z,8
2017-12-27T20:01:28.238Z,8
2017-12-27T20:11:41.576Z,8
2017-12-27T20:21:42.493Z,8
2017-12-27T20:31:27.226Z,8
2017-12-27T20:41:30.674Z,7
2017-12-27T20:51:32.933Z,8
2017-12-27T21:01:31.813Z,8
2017-12-27T21:11:37.436Z,8
2017-12-27T21:21:46.045Z,8
2017-12-27T21:31:42.708Z,8
2017-12-27T21:41:27.789Z,8
2017-12-27T22:01:47.664Z,9
2017-12-27T22:21:53.852Z,9
2017-12-27T22:31:29.310Z,8
2017-12-27T22:41:33.340Z,9
2017-12-27T23:01:27.405Z,8
2017-12-27T23:11:28.968Z,8
2017-12-27T23:21:33.103Z,8
2017-12-27T23:31:33.925Z,8
2017-12-27T23:41:56.881Z,8
2017-12-27T23:51:51.137Z,8
